Fort Peck, MT (59223)

12:22 PM MDT on October 20, 2014 (GMT -0600)
Sturgeon Bay | Change Station
CLOSE
Current Station
Personal Weather Station
Location: Fort Peck, MT
Elevation: 2287 ft
Nearby Weather Stations

Elev 2287 ft 47.99 °N, 106.50 °W | Updated 1 minute ago

Clear
Clear
63.3 °F
Feels Like 63.3 °F
N
4.5
Wind Variable Wind from ESE
Gusts 9.2 mph

Today
High -- | Low -- °F
--% Chance of Precip.
Yesterday
High -- | Low -- °F
Precip. -- in
7:32 AM 6:07 PM
Waning Crescent, 10% visible
Pressure 29.86 in
Visibility 10.0 miles
Clouds Clear
Dew Point 46 °F
Humidity 54%
Rainfall 0.00 in
Snow Depth Not available.
UV 3 out of 12
Pollen 2.10 out of 12
Air Quality Not available.
Flu Activity No Activity
METAR KGGW 201753Z AUTO 14009KT 10SM CLR 16/06 A2985 RMK AO2 SLP112 T01610056 10161 20050 58006

More Conditions Fewer Conditions

Pressure 29.86 in
Visibility 10.0 miles
Clouds Clear
Dew Point 46 °F
Humidity 54%
Rainfall 0.00 in
Snow Depth Not available.
UV 3 out of 12
Pollen 2.10 out of 12
Air Quality Not available.
Flu Activity No Activity
METAR KGGW 201753Z AUTO 14009KT 10SM CLR 16/06 A2985 RMK AO2 SLP112 T01610056 10161 20050 58006

More Conditions Fewer Conditions

10-Day Weather Forecast

Almanac

Astronomy

Oct. 20, 2014 Rise Set
Actual Time 7:32 AM MDT 6:07 PM MDT
Civil Twilight 7:00 AM MDT 6:39 PM MDT
Nautical Twilight 6:24 AM MDT 7:15 PM MDT
Astronomical Twilight 5:48 AM MDT 7:51 PM MDT
Moon 4:09 AM MDT 4:43 PM MDT
Length of Visible Light 11h 38m
Length of Day
10h 35m
Waning Crescent, 10% of the Moon is Illuminated
Today
Waning Crescent
Oct 23
New
Oct 30
First Quarter
Nov 6
Full
Nov 14
Last Quarter

Today's Extremes

State Highs State Lows

Community

WunderPhotos

Upload Photos

1,763,456 photos uploaded!

Nearby

Snow Depth

Station Depth Elevation
Rocky Boy 0 in 4700 ft
Crystal Lake 0 in 6050 ft
Daisy Peak 0 in 7600 ft
Spur Park 0 in 8100 ft
Deadman Creek 0 in 6450 ft

Earthquake Activity

City Distance Mag. Time & Date
No recent earthquake activity has been reported nearby.
Minimum magnitude displayed is 2.5.

Coastal Water Temperatures

Place Temperature
No Stations Reporting

Nearby Weather Stations